Time;durP1;ratioP1;P1;durP2;ratioP2;P2;SDS_P1;SDS_P2;PMS_P1;PMS_P2;Temp;Humidity;BMP_temperature;BMP_pressure;BME280_temperature;BME280_humidity;BME280_pressure;Samples;Min_cycle;Max_cycle;Signal;HPM_P1;HPM_P2
2023/01/05 00:00:13;;;;;;;2.42;1.60;;;;;;;7.67;52.25;93348.59;2052285;69;20235;-73
2023/01/05 00:02:39;;;;;;;3.28;1.40;;;;;;;7.82;52.26;93354.03;2051148;69;20586;-74
2023/01/05 00:05:05;;;;;;;1.63;1.20;;;;;;;7.66;54.20;93357.59;2051626;69;20172;-73
2023/01/05 00:07:30;;;;;;;2.90;1.63;;;;;;;7.42;52.73;93339.50;2054164;69;20220;-73
2023/01/05 00:09:56;;;;;;;2.00;1.38;;;;;;;7.61;53.31;93348.84;2052685;69;20610;-73
2023/01/05 00:23:21;;;;;;;2.10;1.40;;;;;;;7.72;50.48;93342.00;2051400;69;20576;-73
2023/01/05 00:25:47;;;;;;;2.05;1.20;;;;;;;7.71;52.58;93343.31;2050985;69;20236;-74
2023/01/05 00:28:12;;;;;;;2.10;1.45;;;;;;;7.68;53.20;93335.31;2053026;70;20142;-74
2023/01/05 00:30:40;;;;;;;2.22;1.35;;;;;;;7.81;50.38;93349.00;2052971;70;20542;-74
2023/01/05 00:33:16;;;;;;;2.78;1.52;;;;;;;7.93;50.64;93335.97;2053187;70;20178;-75
2023/01/05 00:35:42;;;;;;;2.22;1.25;;;;;;;7.96;50.34;93334.81;2054680;69;20220;-73
2023/01/05 00:38:09;;;;;;;2.67;1.50;;;;;;;7.93;50.42;93340.84;2051194;69;20170;-74
2023/01/05 00:40:37;;;;;;;1.95;1.10;;;;;;;8.08;51.82;93341.41;2050847;70;20636;-75
2023/01/05 00:43:04;;;;;;;2.13;1.00;;;;;;;8.19;52.61;93342.19;2051698;69;20166;-75
2023/01/05 00:45:29;;;;;;;1.42;1.10;;;;;;;8.21;51.75;93336.78;2050904;70;20178;-73
2023/01/05 00:47:57;;;;;;;2.30;1.67;;;;;;;7.99;52.89;93336.47;2050914;69;20181;-72
2023/01/05 00:50:25;;;;;;;1.92;1.38;;;;;;;7.98;51.54;93345.47;2050967;69;20579;-75
2023/01/05 00:52:50;;;;;;;1.50;1.10;;;;;;;8.10;51.85;93335.94;2053031;70;20189;-74
2023/01/05 00:55:16;;;;;;;2.15;1.17;;;;;;;8.01;53.56;93316.97;2053320;70;20224;-73
2023/01/05 00:57:42;;;;;;;2.08;1.20;;;;;;;7.98;52.29;93309.00;2051415;69;20250;-74
2023/01/05 01:00:17;;;;;;;5.05;1.30;;;;;;;8.14;51.48;93299.81;2048279;70;20230;-73
2023/01/05 01:02:43;;;;;;;1.58;1.00;;;;;;;7.98;52.81;93290.13;2050215;69;20153;-72
2023/01/05 01:05:09;;;;;;;1.33;0.90;;;;;;;8.06;53.09;93290.78;2053029;69;20178;-75
2023/01/05 01:07:36;;;;;;;3.55;1.00;;;;;;;8.02;52.61;93276.44;2053872;69;20153;-74
2023/01/05 01:10:04;;;;;;;2.35;1.10;;;;;;;8.04;52.68;93273.03;2053323;70;20585;-74
2023/01/05 01:12:30;;;;;;;1.73;1.02;;;;;;;8.06;52.89;93285.16;2053050;69;20221;-74
2023/01/05 01:14:56;;;;;;;2.13;1.17;;;;;;;8.10;53.79;93279.84;2053738;70;20178;-73
2023/01/05 01:17:21;;;;;;;1.10;1.00;;;;;;;8.10;52.64;93282.66;2053721;69;20154;-73
2023/01/05 01:19:47;;;;;;;3.95;0.88;;;;;;;8.19;51.80;93303.66;2054235;69;20597;-73
2023/01/05 01:22:13;;;;;;;1.70;1.00;;;;;;;8.20;50.98;93310.78;2051971;69;20146;-73
2023/01/05 01:24:38;;;;;;;1.30;0.95;;;;;;;8.12;50.86;93308.06;2053100;70;20157;-73
2023/01/05 01:27:04;;;;;;;1.30;0.90;;;;;;;8.18;49.42;93316.22;2054013;69;20138;-74
2023/01/05 01:29:30;;;;;;;3.10;1.00;;;;;;;8.13;49.56;93323.56;2053040;70;20216;-73
2023/01/05 01:31:55;;;;;;;1.20;1.00;;;;;;;8.02;50.27;93307.28;2051324;69;20181;-73
2023/01/05 01:34:22;;;;;;;1.77;1.00;;;;;;;8.17;50.15;93309.13;2051783;69;20617;-73
2023/01/05 01:36:48;;;;;;;2.17;1.30;;;;;;;8.26;50.00;93305.66;2050655;70;20276;-72
2023/01/05 01:39:17;;;;;;;1.80;1.20;;;;;;;8.36;50.98;93288.88;2052785;70;20170;-73
2023/01/05 01:41:46;;;;;;;2.58;1.17;;;;;;;8.28;51.49;93263.72;2052367;69;20142;-73
2023/01/05 01:45:00;;;;;;;1.27;0.93;;;;;;;8.32;51.91;93263.28;2052790;70;20158;-73
2023/01/05 01:47:38;;;;;;;1.83;1.00;;;;;;;8.28;52.12;93277.75;2042930;70;20587;-72
2023/01/05 01:50:11;;;;;;;;;;;;;;;8.37;51.39;93293.91;2049705;70;20151;-74
2023/01/05 01:52:40;;;;;;;1.13;0.90;;;;;;;8.32;53.62;93286.47;2049575;70;20053;-73
2023/01/05 01:55:06;;;;;;;1.95;0.88;;;;;;;8.08;53.83;93276.16;2048913;70;20206;-73
2023/01/05 01:57:33;;;;;;;1.83;1.15;;;;;;;7.81;54.83;93316.09;2043802;70;20146;-74
2023/01/05 02:00:00;;;;;;;1.55;1.05;;;;;;;8.09;53.53;93316.91;2046522;70;20729;-74
2023/01/05 02:02:28;;;;;;;2.05;0.98;;;;;;;8.10;53.94;93313.50;2046108;70;20191;-75
2023/01/05 02:04:59;;;;;;;2.30;0.90;;;;;;;8.13;54.21;93306.75;2042739;70;20242;-73
2023/01/05 02:07:25;;;;;;;2.67;1.10;;;;;;;8.02;55.00;93292.50;2045463;70;20138;-73
2023/01/05 02:09:51;;;;;;;1.90;1.10;;;;;;;7.85;53.75;93279.25;2045657;70;20147;-73
2023/01/05 02:12:42;;;;;;;2.60;1.00;;;;;;;7.90;52.64;93295.06;2046681;70;20155;-74
2023/01/05 02:15:35;;;;;;;2.47;1.20;;;;;;;7.86;53.38;93261.84;2043677;70;20164;-73
2023/01/05 02:18:39;;;;;;;1.77;1.30;;;;;;;7.96;54.64;93261.16;2046353;70;20174;-74
2023/01/05 02:21:24;;;;;;;1.10;0.88;;;;;;;7.85;54.60;93248.41;2046280;70;20178;-76
2023/01/05 02:24:25;;;;;;;2.03;1.20;;;;;;;7.56;54.47;93259.41;2048185;69;20562;-73
2023/01/05 02:27:16;;;;;;;1.60;1.20;;;;;;;7.76;54.98;93249.84;2050332;70;20243;-72
2023/01/05 02:30:15;;;;;;;1.23;1.00;;;;;;;7.81;54.47;93245.28;2050084;70;20165;-73
2023/01/05 02:33:06;;;;;;;1.27;0.98;;;;;;;7.26;55.27;93230.44;2050982;70;20161;-73
2023/01/05 02:35:38;;;;;;;1.10;1.00;;;;;;;7.45;56.43;93243.84;2054055;69;20306;-73
2023/01/05 02:38:14;;;;;;;1.90;1.25;;;;;;;7.57;55.82;93244.09;2053048;69;20235;-73
2023/01/05 02:40:48;;;;;;;1.52;0.90;;;;;;;7.54;55.73;93242.44;2053187;70;20169;-73
2023/01/05 02:43:19;;;;;;;1.10;0.90;;;;;;;7.62;54.13;93234.69;2053815;69;20636;-74
2023/01/05 02:45:46;;;;;;;1.65;1.10;;;;;;;7.67;53.65;93235.75;2053023;70;20599;-74
2023/01/05 02:48:13;;;;;;;1.10;1.00;;;;;;;7.84;53.01;93222.47;2053500;70;20150;-74
2023/01/05 02:51:00;;;;;;;1.55;1.10;;;;;;;7.79;54.28;93217.09;2053988;69;20236;-74
2023/01/05 02:53:29;;;;;;;1.90;1.10;;;;;;;7.83;53.53;93225.81;2051405;69;20197;-72
2023/01/05 02:56:01;;;;;;;3.13;1.13;;;;;;;7.94;54.26;93224.56;2053464;69;20669;-73
2023/01/05 02:58:41;;;;;;;2.78;1.20;;;;;;;7.92;52.55;93216.72;2053992;69;20142;-73
2023/01/05 03:01:14;;;;;;;2.00;1.20;;;;;;;8.03;52.60;93223.88;2053526;69;20207;-73
2023/01/05 03:03:45;;;;;;;2.05;1.00;;;;;;;8.00;52.55;93227.84;2054509;69;20164;-73
2023/01/05 03:06:20;;;;;;;1.97;1.00;;;;;;;8.04;55.13;93226.09;2054135;69;20201;-73
2023/01/05 03:08:54;;;;;;;1.90;1.02;;;;;;;7.90;55.13;93210.97;2051172;69;20295;-73
2023/01/05 03:14:33;;;;;;;3.08;1.40;;;;;;;8.02;55.09;93202.78;2053889;69;20150;-73
2023/01/05 03:17:00;;;;;;;1.42;1.10;;;;;;;7.84;55.32;93194.44;2050502;69;20257;-73
2023/01/05 03:19:35;;;;;;;2.25;1.10;;;;;;;8.00;55.24;93197.75;2050451;70;20135;-74
2023/01/05 03:37:15;;;;;;;1.02;0.90;;;;;;;8.15;54.96;93171.53;2053967;69;20181;-73
2023/01/05 03:39:43;;;;;;;;;;;;;;;8.19;54.75;93171.13;2053584;69;20157;-73
2023/01/05 03:42:11;;;;;;;2.83;1.13;;;;;;;8.11;53.82;93165.63;2053838;69;20046;-74
2023/01/05 03:44:38;;;;;;;1.20;1.00;;;;;;;8.23;53.55;93179.84;2056612;69;20170;-72
2023/01/05 03:47:04;;;;;;;2.20;1.15;;;;;;;8.13;53.95;93166.53;2053833;70;20180;-76
2023/01/05 03:49:30;;;;;;;1.60;1.00;;;;;;;8.00;53.50;93171.78;2055916;69;20176;-74
2023/01/05 03:51:56;;;;;;;1.60;1.00;;;;;;;8.17;53.70;93174.50;2053591;69;20242;-72
2023/01/05 03:54:22;;;;;;;2.45;1.00;;;;;;;8.26;54.27;93173.81;2050892;70;20141;-73
2023/01/05 03:56:48;;;;;;;3.08;1.10;;;;;;;8.32;54.17;93171.47;2047895;70;20158;-73
2023/01/05 03:59:14;;;;;;;1.60;1.15;;;;;;;8.05;54.86;93154.66;2050630;70;20582;-73
2023/01/05 04:01:40;;;;;;;2.55;1.17;;;;;;;7.96;54.83;93165.84;2052922;69;20577;-72
2023/01/05 04:04:08;;;;;;;1.88;1.40;;;;;;;8.03;55.50;93159.41;2053627;70;20142;-72
2023/01/05 04:06:33;;;;;;;1.08;0.98;;;;;;;8.11;55.27;93149.56;2054192;69;20154;-73
2023/01/05 04:08:59;;;;;;;3.05;1.00;;;;;;;8.14;55.73;93164.44;2053725;70;20571;-73
2023/01/05 04:11:25;;;;;;;1.98;1.10;;;;;;;8.08;55.43;93167.53;2053974;69;20142;-75
2023/01/05 04:13:56;;;;;;;2.20;0.98;;;;;;;8.02;55.71;93166.34;2053919;70;20169;-75
2023/01/05 04:16:22;;;;;;;1.85;1.10;;;;;;;8.08;56.03;93144.38;2053553;69;20142;-73
2023/01/05 04:18:50;;;;;;;1.08;0.88;;;;;;;8.07;55.46;93145.69;2053605;70;20612;-74
2023/01/05 04:21:17;;;;;;;1.77;0.70;;;;;;;8.16;55.76;93139.38;2053941;70;20558;-74
2023/01/05 04:23:43;;;;;;;1.33;0.82;;;;;;;8.01;56.77;93136.78;2054125;69;20223;-74
2023/01/05 04:26:09;;;;;;;1.20;0.90;;;;;;;8.10;54.79;93138.91;2054123;69;20131;-72
2023/01/05 04:28:35;;;;;;;3.90;1.20;;;;;;;8.21;54.58;93141.16;2050654;69;20246;-72
2023/01/05 04:31:01;;;;;;;1.45;1.10;;;;;;;7.98;54.35;93146.41;2054294;69;20158;-73
2023/01/05 04:33:29;;;;;;;1.30;0.90;;;;;;;7.97;55.12;93140.06;2053838;69;20170;-72
2023/01/05 04:35:55;;;;;;;1.42;1.10;;;;;;;8.09;54.28;93146.56;2053773;70;20216;-73
2023/01/05 04:38:24;;;;;;;1.98;0.90;;;;;;;8.04;54.06;93127.22;2053890;69;20153;-73
2023/01/05 04:40:52;;;;;;;1.52;1.10;;;;;;;7.77;54.50;93128.00;2053495;70;20567;-73
2023/01/05 04:43:21;;;;;;;1.77;1.25;;;;;;;7.75;54.58;93136.25;2050899;69;20161;-73
2023/01/05 04:45:48;;;;;;;2.42;1.30;;;;;;;7.89;55.04;93136.63;2052005;70;20173;-73
2023/01/05 04:48:15;;;;;;;1.10;0.80;;;;;;;8.08;56.78;93133.16;2053918;69;20142;-74
2023/01/05 04:50:41;;;;;;;1.15;0.93;;;;;;;8.16;56.88;93128.16;2050748;70;20579;-74
2023/01/05 04:53:07;;;;;;;2.00;1.40;;;;;;;8.26;55.37;93128.94;2050568;70;20605;-74
2023/01/05 04:55:36;;;;;;;2.60;1.20;;;;;;;8.30;55.20;93134.84;2050838;69;20197;-72
2023/01/05 04:58:02;;;;;;;1.80;1.33;;;;;;;8.24;55.32;93137.19;2050372;69;20313;-72
2023/01/05 05:00:30;;;;;;;2.58;1.27;;;;;;;8.10;56.67;93136.84;2053443;69;20145;-73
2023/01/05 05:02:57;;;;;;;1.52;0.95;;;;;;;8.19;55.75;93134.66;2053889;69;20202;-73
2023/01/05 05:05:23;;;;;;;1.10;0.90;;;;;;;8.29;56.11;93130.56;2054431;69;20229;-74
2023/01/05 05:07:52;;;;;;;2.53;1.20;;;;;;;8.11;55.47;93132.72;2053895;70;20161;-73
2023/01/05 05:10:18;;;;;;;2.28;1.60;;;;;;;8.18;55.42;93125.50;2053830;69;20154;-72
2023/01/05 05:12:44;;;;;;;3.67;2.15;;;;;;;8.04;55.95;93130.03;2053577;70;20180;-73
2023/01/05 05:15:10;;;;;;;1.63;1.42;;;;;;;8.02;55.79;93119.41;2053777;70;20170;-74
2023/01/05 05:17:40;;;;;;;2.92;1.83;;;;;;;8.02;55.79;93138.31;2054395;69;20185;-74
2023/01/05 05:20:11;;;;;;;1.38;1.08;;;;;;;8.05;55.77;93134.31;2053554;70;20154;-75
2023/01/05 05:22:37;;;;;;;1.45;1.10;;;;;;;8.12;56.89;93128.59;2053728;70;20245;-74
2023/01/05 05:25:04;;;;;;;1.33;1.00;;;;;;;8.20;57.36;93141.72;2053251;70;20233;-74
2023/01/05 05:27:30;;;;;;;1.42;1.00;;;;;;;8.34;57.04;93145.66;2051631;70;20144;-73
2023/01/05 05:29:55;;;;;;;5.07;2.03;;;;;;;8.32;56.72;93151.09;2054439;69;20141;-73
2023/01/05 05:32:21;;;;;;;3.22;1.95;;;;;;;8.27;56.32;93141.63;2051895;69;20558;-73
2023/01/05 05:34:46;;;;;;;8.20;3.22;;;;;;;8.20;56.52;93134.09;2051944;69;20160;-73
2023/01/05 05:37:13;;;;;;;10.55;4.38;;;;;;;8.09;57.87;93146.56;2050183;69;20147;-73
2023/01/05 05:39:39;;;;;;;5.13;2.72;;;;;;;8.08;56.86;93135.94;2052758;70;20234;-75
2023/01/05 05:42:04;;;;;;;4.55;2.22;;;;;;;8.35;56.03;93144.31;2051259;69;20154;-75
2023/01/05 05:44:30;;;;;;;6.75;1.75;;;;;;;8.36;56.17;93142.97;2051223;70;21377;-74
2023/01/05 05:46:56;;;;;;;2.25;1.40;;;;;;;8.17;57.21;93140.13;2051692;69;20178;-74
2023/01/05 05:49:21;;;;;;;5.90;2.92;;;;;;;8.05;57.22;93143.47;2052719;69;20555;-73
2023/01/05 05:51:47;;;;;;;2.00;1.63;;;;;;;8.07;56.84;93146.44;2053879;69;20149;-74
2023/01/05 05:54:13;;;;;;;1.50;1.20;;;;;;;8.26;56.59;93136.59;2051583;69;20224;-73
2023/01/05 05:56:38;;;;;;;1.63;1.10;;;;;;;8.23;57.74;93141.31;2051013;70;20238;-74
2023/01/05 05:59:05;;;;;;;0.95;0.82;;;;;;;8.19;59.00;93141.00;2053411;70;20146;-75
2023/01/05 06:01:31;;;;;;;2.05;1.50;;;;;;;8.09;58.58;93149.38;2051028;70;20174;-72
2023/01/05 06:03:57;;;;;;;4.88;2.95;;;;;;;8.11;57.64;93157.97;2050948;70;20355;-73
2023/01/05 06:06:22;;;;;;;1.95;1.50;;;;;;;8.24;58.46;93161.69;2051061;70;20233;-73
2023/01/05 06:08:48;;;;;;;2.38;1.60;;;;;;;8.31;57.55;93169.97;2052292;69;20242;-73
2023/01/05 06:11:15;;;;;;;2.83;1.75;;;;;;;8.25;58.77;93177.22;2054246;69;20138;-72
2023/01/05 06:13:42;;;;;;;4.60;2.00;;;;;;;7.84;60.35;93166.41;2053769;70;20154;-73
2023/01/05 06:16:11;;;;;;;3.05;1.90;;;;;;;7.79;58.11;93172.25;2053974;69;20146;-75
2023/01/05 06:18:36;;;;;;;2.65;1.88;;;;;;;7.82;57.46;93171.81;2052987;69;20200;-75
2023/01/05 06:21:02;;;;;;;3.63;1.77;;;;;;;8.11;57.46;93157.22;2053369;70;20153;-73
2023/01/05 06:23:28;;;;;;;2.17;1.35;;;;;;;8.25;58.08;93163.91;2052914;69;20162;-73
2023/01/05 06:25:53;;;;;;;1.52;1.05;;;;;;;8.27;60.02;93163.31;2053822;69;20150;-73
2023/01/05 06:28:19;;;;;;;5.80;2.35;;;;;;;8.24;59.04;93159.63;2053057;69;20597;-72
2023/01/05 06:30:46;;;;;;;2.80;1.65;;;;;;;8.32;58.87;93174.25;2051894;69;20316;-72
2023/01/05 06:33:12;;;;;;;3.97;1.90;;;;;;;8.18;59.51;93169.63;2053471;69;20149;-73
2023/01/05 06:35:37;;;;;;;2.38;1.58;;;;;;;8.30;59.93;93179.72;2052360;70;20148;-73
2023/01/05 06:38:03;;;;;;;4.40;1.77;;;;;;;8.11;60.35;93197.22;2052874;70;20277;-72
2023/01/05 06:40:29;;;;;;;3.22;2.20;;;;;;;8.13;59.54;93191.03;2051757;70;20464;-74
2023/01/05 06:42:55;;;;;;;4.10;2.20;;;;;;;8.29;59.38;93183.88;2052634;70;20683;-74
2023/01/05 06:45:20;;;;;;;5.32;3.63;;;;;;;8.22;58.74;93178.38;2053163;70;20164;-73
2023/01/05 06:47:46;;;;;;;4.68;3.10;;;;;;;8.29;59.34;93177.50;2052549;70;20177;-71
2023/01/05 06:50:12;;;;;;;3.35;1.95;;;;;;;8.34;59.83;93177.25;2053525;69;20145;-73
2023/01/05 06:52:39;;;;;;;3.75;2.40;;;;;;;8.19;59.67;93171.84;2054576;69;20220;-70
2023/01/05 06:55:06;;;;;;;1.48;1.25;;;;;;;8.33;59.89;93172.94;2052726;69;20149;-72
2023/01/05 06:57:32;;;;;;;4.43;2.38;;;;;;;8.16;58.76;93167.44;2054288;69;20161;-73
2023/01/05 06:59:58;;;;;;;4.63;2.47;;;;;;;8.21;58.76;93160.06;2052353;69;20225;-73
2023/01/05 07:02:25;;;;;;;3.17;2.08;;;;;;;8.24;58.63;93151.19;2053265;70;20142;-72
2023/01/05 07:04:50;;;;;;;4.53;1.70;;;;;;;8.30;58.54;93153.75;2054308;69;20157;-71
2023/01/05 07:07:16;;;;;;;3.38;2.03;;;;;;;8.07;57.74;93149.22;2051097;70;20212;-72
2023/01/05 07:09:43;;;;;;;3.20;1.80;;;;;;;8.26;58.74;93145.75;2053369;69;20578;-72
2023/01/05 07:12:10;;;;;;;1.70;1.40;;;;;;;8.43;57.95;93142.16;2054440;69;20597;-71
2023/01/05 07:14:37;;;;;;;2.20;1.60;;;;;;;8.40;57.45;93155.28;2050861;69;20324;-71
2023/01/05 07:17:02;;;;;;;2.72;1.95;;;;;;;8.39;57.46;93164.28;2052797;70;20555;-72
2023/01/05 07:19:28;;;;;;;3.78;1.70;;;;;;;8.25;57.82;93152.69;2050712;70;20161;-72
2023/01/05 07:21:54;;;;;;;4.15;2.25;;;;;;;8.27;57.95;93177.34;2052325;70;20212;-71
2023/01/05 07:24:20;;;;;;;38.83;13.48;;;;;;;7.77;60.63;93181.25;2053272;70;20146;-72
2023/01/05 07:26:47;;;;;;;27.55;9.30;;;;;;;7.77;60.73;93181.25;2050847;69;20161;-72
2023/01/05 07:29:12;;;;;;;19.50;7.20;;;;;;;7.95;60.14;93189.59;2051852;69;20146;-74
2023/01/05 07:31:38;;;;;;;15.52;6.32;;;;;;;8.18;59.90;93183.66;2053420;70;20139;-71
2023/01/05 07:34:04;;;;;;;15.23;6.00;;;;;;;8.27;59.03;93171.75;2053089;69;20153;-71
2023/01/05 07:36:29;;;;;;;11.00;4.78;;;;;;;8.07;59.39;93173.72;2053126;69;20165;-72
2023/01/05 07:38:55;;;;;;;7.28;3.30;;;;;;;8.03;61.02;93184.63;2052863;69;20246;-73
2023/01/05 07:41:21;;;;;;;4.15;2.10;;;;;;;8.03;61.15;93170.63;2053894;69;20170;-72
2023/01/05 07:43:51;;;;;;;2.38;1.50;;;;;;;8.20;61.13;93189.41;2054361;69;20642;-72
2023/01/05 07:46:18;;;;;;;3.90;2.00;;;;;;;8.15;60.28;93177.16;2054610;69;20180;-72
2023/01/05 07:48:43;;;;;;;4.28;2.63;;;;;;;8.09;61.38;93185.09;2054073;69;20158;-72
2023/01/05 07:51:10;;;;;;;6.10;2.90;;;;;;;8.03;61.17;93196.59;2054538;70;20201;-72
2023/01/05 07:53:37;;;;;;;4.38;2.58;;;;;;;8.14;60.47;93203.72;2054414;69;20158;-72
2023/01/05 07:56:05;;;;;;;5.22;3.30;;;;;;;7.99;61.16;93189.94;2054456;69;20160;-74
2023/01/05 07:58:31;;;;;;;7.15;3.78;;;;;;;8.08;61.17;93198.38;2054536;69;20253;-74
2023/01/05 08:01:04;;;;;;;6.82;3.25;;;;;;;8.16;60.75;93189.88;2054696;69;20177;-71
2023/01/05 08:03:30;;;;;;;6.05;3.55;;;;;;;8.03;61.90;93204.25;2054598;69;20161;-73
2023/01/05 08:05:56;;;;;;;4.93;2.85;;;;;;;7.79;62.82;93187.03;2052451;69;20265;-72
2023/01/05 08:08:22;;;;;;;5.80;3.60;;;;;;;7.89;62.43;93203.91;2051283;69;20182;-72
2023/01/05 08:10:48;;;;;;;4.72;3.22;;;;;;;7.85;62.70;93206.38;2050596;70;20216;-71
2023/01/05 08:15:59;;;;;;;8.93;5.15;;;;;;;7.64;63.11;93201.22;2054186;70;20234;-72
2023/01/05 08:18:25;;;;;;;7.50;4.43;;;;;;;7.83;62.84;93197.78;2053934;69;20269;-70
2023/01/05 08:20:59;;;;;;;8.77;4.97;;;;;;;7.85;62.62;93217.59;2053007;69;20531;-73
2023/01/05 08:23:26;;;;;;;9.00;4.78;;;;;;;7.86;63.00;93216.25;2053282;70;20157;-72
2023/01/05 08:25:54;;;;;;;9.52;4.70;;;;;;;7.98;62.76;93236.84;2054429;69;20676;-72
2023/01/05 08:28:19;;;;;;;14.48;8.43;;;;;;;8.08;62.14;93218.00;2053653;69;20161;-74
2023/01/05 08:30:46;;;;;;;13.38;8.77;;;;;;;8.20;62.06;93229.44;2054237;69;20138;-73
2023/01/05 08:33:12;;;;;;;7.25;4.90;;;;;;;7.95;63.68;93224.00;2054395;69;20216;-75
2023/01/05 08:35:42;;;;;;;6.82;3.60;;;;;;;8.14;63.96;93217.75;2054519;69;20221;-73
2023/01/05 08:38:08;;;;;;;3.50;1.80;;;;;;;8.37;63.48;93209.75;2054486;69;20172;-75
2023/01/05 08:40:36;;;;;;;14.30;7.47;;;;;;;7.80;64.22;93213.72;2054003;69;20221;-73
2023/01/05 08:43:02;;;;;;;9.68;5.30;;;;;;;7.72;64.88;93232.69;2054574;69;20230;-74
2023/01/05 08:45:28;;;;;;;11.90;5.10;;;;;;;8.05;64.21;93230.38;2054439;69;20138;-73
2023/01/05 08:47:55;;;;;;;9.77;5.50;;;;;;;8.34;63.62;93236.16;2053302;69;20172;-73
2023/01/05 08:50:21;;;;;;;9.18;4.15;;;;;;;8.64;63.22;93225.78;2053222;69;20610;-74
2023/01/05 08:52:47;;;;;;;6.07;3.40;;;;;;;8.83;63.58;93217.41;2052731;70;20188;-72
2023/01/05 08:55:15;;;;;;;11.95;5.95;;;;;;;8.14;63.71;93229.69;2053356;69;20290;-73
2023/01/05 08:57:40;;;;;;;10.55;6.00;;;;;;;8.80;63.16;93237.53;2054439;69;20659;-73
2023/01/05 09:00:08;;;;;;;8.80;5.10;;;;;;;8.97;63.02;93254.25;2053502;69;20388;-73
2023/01/05 09:02:33;;;;;;;9.32;4.50;;;;;;;9.18;62.99;93231.25;2053388;69;20168;-73
2023/01/05 09:04:59;;;;;;;7.35;4.22;;;;;;;9.50;62.34;93237.78;2054394;69;20142;-73
2023/01/05 09:07:27;;;;;;;8.75;5.20;;;;;;;9.33;62.30;93253.44;2053860;69;20590;-72
2023/01/05 09:09:53;;;;;;;8.25;5.47;;;;;;;9.33;62.35;93245.00;2053749;69;20146;-76
2023/01/05 09:12:18;;;;;;;9.90;6.00;;;;;;;9.26;61.66;93259.22;2052861;69;20624;-74
2023/01/05 09:14:44;;;;;;;9.45;5.80;;;;;;;9.26;61.76;93262.03;2051143;69;20253;-74
2023/01/05 09:17:10;;;;;;;8.32;5.50;;;;;;;9.29;61.96;93250.31;2051187;70;20152;-76
2023/01/05 09:19:36;;;;;;;8.98;4.97;;;;;;;9.34;61.87;93268.94;2051010;70;20230;-74
2023/01/05 09:22:02;;;;;;;8.23;5.13;;;;;;;9.13;62.29;93263.16;2053775;70;20220;-77
2023/01/05 09:24:28;;;;;;;8.07;4.90;;;;;;;9.35;62.09;93264.09;2054060;69;20149;-76
2023/01/05 09:26:53;;;;;;;10.00;4.95;;;;;;;9.34;62.24;93254.91;2049332;70;20244;-75
2023/01/05 09:29:20;;;;;;;14.80;7.38;;;;;;;8.99;62.58;93264.91;2053752;69;20244;-76
2023/01/05 09:31:46;;;;;;;18.67;11.63;;;;;;;9.04;63.21;93286.34;2053931;70;20611;-75
2023/01/05 09:34:11;;;;;;;13.82;7.70;;;;;;;9.11;63.14;93282.66;2054650;69;20131;-74
2023/01/05 09:36:37;;;;;;;11.70;6.07;;;;;;;9.30;62.55;93277.09;2054495;69;20196;-76
2023/01/05 09:39:05;;;;;;;9.98;5.80;;;;;;;9.52;61.90;93274.44;2053952;69;20174;-73
2023/01/05 09:41:45;;;;;;;10.48;4.85;;;;;;;9.50;63.23;93260.25;2053972;69;20498;-74
2023/01/05 09:44:22;;;;;;;10.48;6.72;;;;;;;9.30;62.77;93262.28;2054544;69;20154;-74
2023/01/05 09:46:49;;;;;;;13.95;6.45;;;;;;;9.47;62.09;93250.19;2054321;69;20150;-74
2023/01/05 09:49:19;;;;;;;12.63;6.43;;;;;;;9.54;62.66;93232.44;2053783;69;20150;-77
2023/01/05 09:51:45;;;;;;;13.57;6.70;;;;;;;9.25;63.88;93260.50;2054135;69;20142;-72
2023/01/05 09:54:17;;;;;;;10.63;6.10;;;;;;;9.33;63.21;93267.47;2053533;69;20602;-76
2023/01/05 09:56:45;;;;;;;8.73;5.18;;;;;;;9.81;63.03;93251.97;2054260;69;20142;-75
2023/01/05 09:59:17;;;;;;;5.28;3.17;;;;;;;10.00;62.13;93246.31;2053965;70;20184;-74
2023/01/05 10:01:46;;;;;;;14.60;6.47;;;;;;;9.18;63.28;93278.25;2054468;69;20659;-74
2023/01/05 10:04:21;;;;;;;11.82;5.80;;;;;;;10.11;62.71;93267.47;2054008;69;20188;-73
2023/01/05 10:06:52;;;;;;;10.85;4.82;;;;;;;10.33;61.38;93265.53;2053223;69;20170;-73
2023/01/05 10:09:21;;;;;;;8.45;4.25;;;;;;;11.04;60.74;93266.88;2050868;70;20202;-74
2023/01/05 10:14:46;;;;;;;13.55;7.63;;;;;;;10.66;59.69;93262.91;2054360;69;20142;-73
2023/01/05 10:17:18;;;;;;;14.23;8.10;;;;;;;10.51;60.10;93258.38;2053011;69;20217;-72
2023/01/05 10:19:52;;;;;;;13.43;7.18;;;;;;;11.02;59.21;93255.47;2051703;69;20182;-73
2023/01/05 10:22:31;;;;;;;13.55;6.97;;;;;;;11.29;59.11;93233.38;2050960;69;20190;-73
2023/01/05 10:25:20;;;;;;;10.75;4.78;;;;;;;11.62;57.12;93239.06;2050999;70;20253;-74
2023/01/05 10:28:15;;;;;;;10.13;5.20;;;;;;;11.74;57.93;93241.94;2050574;70;20162;-76
2023/01/05 10:30:58;;;;;;;7.82;4.70;;;;;;;11.68;56.93;93207.69;2050502;70;20245;-74
2023/01/05 10:33:44;;;;;;;3.13;1.65;;;;;;;11.82;53.64;93202.22;2051049;70;20150;-75
2023/01/05 10:36:13;;;;;;;14.25;8.05;;;;;;;11.41;56.29;93222.16;2050882;69;20185;-73
2023/01/05 10:38:52;;;;;;;8.52;4.22;;;;;;;11.57;56.29;93219.66;2050942;70;20197;-73
2023/01/05 10:41:23;;;;;;;8.45;4.65;;;;;;;11.88;55.00;93209.03;2053485;69;20324;-73
2023/01/05 10:43:55;;;;;;;7.80;4.70;;;;;;;11.94;55.19;93217.16;2054240;70;20158;-73
2023/01/05 10:46:20;;;;;;;6.95;4.30;;;;;;;11.91;54.65;93212.72;2053743;70;20172;-72
2023/01/05 10:48:46;;;;;;;7.80;4.30;;;;;;;11.91;55.02;93215.53;2054441;69;20491;-72
2023/01/05 10:51:12;;;;;;;5.00;3.50;;;;;;;11.92;56.03;93228.31;2053091;69;20244;-73
2023/01/05 10:53:41;;;;;;;5.78;3.00;;;;;;;11.89;55.96;93229.53;2050701;70;20232;-72
2023/01/05 10:56:26;;;;;;;5.93;3.28;;;;;;;12.03;54.46;93236.06;2053994;69;20575;-73
2023/01/05 10:59:11;;;;;;;5.70;3.00;;;;;;;12.22;54.41;93223.84;2051105;69;20204;-72
2023/01/05 11:01:44;;;;;;;4.18;2.53;;;;;;;12.17;54.03;93222.84;2052133;69;20176;-72
2023/01/05 11:04:23;;;;;;;4.18;3.08;;;;;;;12.11;54.33;93210.47;2053929;69;20244;-73
2023/01/05 11:06:50;;;;;;;4.55;3.00;;;;;;;11.99;54.66;93213.22;2051599;69;20152;-74
2023/01/05 11:09:22;;;;;;;5.13;2.50;;;;;;;12.08;55.77;93220.88;2054142;70;20185;-75
2023/01/05 11:12:02;;;;;;;6.35;3.10;;;;;;;12.17;54.58;93222.13;2053539;69;20167;-73
2023/01/05 11:14:31;;;;;;;5.18;2.33;;;;;;;12.17;54.29;93225.69;2053729;70;20532;-74
2023/01/05 11:17:04;;;;;;;3.10;2.13;;;;;;;12.36;54.20;93238.13;2054256;69;20181;-75
2023/01/05 11:19:34;;;;;;;8.65;3.30;;;;;;;12.46;53.45;93235.94;2055066;69;20146;-74
2023/01/05 11:22:01;;;;;;;5.95;3.78;;;;;;;12.53;52.88;93231.41;2056111;69;20169;-74
2023/01/05 11:24:31;;;;;;;2.72;1.92;;;;;;;12.55;52.45;93234.34;2051714;70;20549;-75
2023/01/05 11:27:04;;;;;;;2.40;1.38;;;;;;;12.64;51.67;93213.72;2055279;69;20252;-75
2023/01/05 11:29:33;;;;;;;1.85;1.10;;;;;;;12.88;48.26;93206.75;2055401;69;20224;-75
2023/01/05 11:32:02;;;;;;;2.40;1.25;;;;;;;13.03;48.36;93207.59;2051714;70;20233;-74
2023/01/05 11:34:43;;;;;;;3.20;2.30;;;;;;;13.06;48.95;93212.03;2054887;69;20589;-78
2023/01/05 11:37:24;;;;;;;4.57;2.45;;;;;;;13.09;49.79;93200.19;2051719;70;20487;-75
2023/01/05 11:40:04;;;;;;;3.50;1.80;;;;;;;13.23;49.66;93194.69;2054656;69;20278;-73
2023/01/05 11:42:34;;;;;;;2.30;1.60;;;;;;;13.37;49.38;93198.34;2051640;69;20197;-76
2023/01/05 11:45:19;;;;;;;3.45;1.50;;;;;;;13.25;50.15;93197.63;2051404;70;20227;-74
2023/01/05 11:47:52;;;;;;;2.83;1.23;;;;;;;13.12;52.18;93196.16;2050741;70;20556;-74
2023/01/05 11:50:52;;;;;;;2.28;1.13;;;;;;;13.36;49.94;93179.91;2051446;70;20166;-76
2023/01/05 11:53:23;;;;;;;1.42;1.08;;;;;;;13.23;50.69;93192.59;2050981;69;20280;-73
2023/01/05 11:56:22;;;;;;;13.13;3.08;;;;;;;12.94;51.62;93203.53;2051123;70;20694;-73
2023/01/05 11:58:53;;;;;;;7.85;2.13;;;;;;;12.59;52.54;93207.09;2052723;69;20635;-73
2023/01/05 12:01:45;;;;;;;5.75;1.73;;;;;;;12.96;50.31;93186.69;2054611;69;20146;-73
2023/01/05 12:04:36;;;;;;;6.90;1.20;;;;;;;13.11;47.36;93183.38;2054501;69;20575;-76
2023/01/05 12:07:28;;;;;;;6.25;1.00;;;;;;;13.19;48.99;93189.50;2054106;70;20240;-74
2023/01/05 12:10:03;;;;;;;5.65;2.40;;;;;;;12.61;52.06;93198.03;2054229;69;20217;-74
2023/01/05 12:12:47;;;;;;;5.65;2.25;;;;;;;12.90;52.38;93201.19;2054677;69;20172;-73
2023/01/05 12:15:34;;;;;;;4.35;2.30;;;;;;;12.81;52.69;93187.94;2053962;70;20240;-73
2023/01/05 12:18:25;;;;;;;10.73;2.10;;;;;;;12.89;51.73;93179.22;2052444;69;20303;-74
2023/01/05 12:20:59;;;;;;;7.72;1.63;;;;;;;12.93;51.91;93185.84;2051233;70;20157;-72
2023/01/05 12:24:05;;;;;;;2.95;1.48;;;;;;;12.83;50.44;93173.19;2051156;70;20146;-73
2023/01/05 12:26:52;;;;;;;5.53;2.60;;;;;;;12.83;51.79;93173.19;2052195;70;20142;-74